Main page
METAR-TAF:

METAR-TAF

Airports :

Oxford Airport

Oxford, England

latitude: 51-50-13N, longitude: 1-19-12W, elevation: 82 m

Current weather observation

The report was made 4 hours and 22 minutes ago, at 19:50 UTC
Wind 11 kt from the West/Southwest
Temperature 5°C
Humidity 93%
Pressure 1014 hPa
Visibility 10 km or more
Scattered clouds at a height of 4000 ft

METAR: EGTK 171950Z 25011KT 9999 SCT040 05/04 Q1014 REDZ

Time: 00:12 (00:12 UTC)

Forecast

The report was made 7 hours and 18 minutes ago, at 16:54 UTC
Forecast valid from 17 at 18 UTC to 17 at 23 UTC
Wind 15 kt from the West/Southwest
Visibility 10 km or more
Scattered clouds at a height of 2500 ft
Probability 30% :
Temporary
from 17 at 18 UTC to 17 at 20 UTC
Wind 18 kt from the West with gusts up to 28 kt
Visibility: 6000 m
rain showers

TAF: EGTK 171654Z 1718/1723 25015KT 9999 SCT025 PROB30 TEMPO 1718/1720 26018G28KT 6000 SHRA

Weather observations and forecasts of more than 4000 airports (METAR and TAF reports).

The available stations are represented by yellow and red dots on the map.

Hover mouse over dot to see the name of the station.

Then click to see weather observations and forecasts.

To change the map : click on the green buttons with a black cross to zoom in, on the green button with a dash to zoom out, or on the green arrows for adjacent maps.


METAR-TAF: